createdAt,value
2019-03-31T00:00:48.405Z,0.00
2019-03-31T00:01:48.398Z,0.00
2019-03-31T00:02:48.399Z,0.00
2019-03-31T00:03:48.376Z,0.00
2019-03-31T00:04:48.365Z,0.00
2019-03-31T00:05:48.366Z,0.00
2019-03-31T00:06:48.341Z,0.00
2019-03-31T00:07:48.347Z,0.00
2019-03-31T00:08:48.317Z,0.00
2019-03-31T00:09:48.311Z,0.00
2019-03-31T00:10:48.300Z,0.00
2019-03-31T00:11:48.289Z,0.00
2019-03-31T00:12:48.290Z,0.00
2019-03-31T00:13:48.268Z,0.00
2019-03-31T00:14:48.254Z,0.00
2019-03-31T00:15:48.246Z,0.00
2019-03-31T00:16:48.234Z,0.00
2019-03-31T00:17:48.239Z,0.00
2019-03-31T00:18:48.205Z,0.00
2019-03-31T00:19:48.199Z,0.00
2019-03-31T00:20:48.186Z,0.00
2019-03-31T00:21:48.182Z,0.00
2019-03-31T00:22:48.180Z,0.00
2019-03-31T00:23:48.156Z,0.00
2019-03-31T00:24:48.140Z,0.00
2019-03-31T00:25:48.136Z,0.00
2019-03-31T00:26:48.118Z,0.00
2019-03-31T00:27:48.126Z,0.00
2019-03-31T00:28:48.095Z,0.00
2019-03-31T00:29:48.093Z,0.00
2019-03-31T00:30:48.074Z,0.00
2019-03-31T00:31:48.067Z,0.00
2019-03-31T00:32:48.070Z,0.00
2019-03-31T00:33:48.048Z,0.00
2019-03-31T00:34:48.028Z,0.00
2019-03-31T00:35:48.022Z,0.00
2019-03-31T00:36:48.006Z,0.00
2019-03-31T00:37:48.017Z,0.00
2019-03-31T00:38:47.986Z,0.00
2019-03-31T00:39:47.982Z,0.00
2019-03-31T00:40:47.962Z,0.00
2019-03-31T00:41:47.961Z,0.00
2019-03-31T00:42:47.954Z,0.00
2019-03-31T00:43:47.937Z,0.00
2019-03-31T00:44:47.920Z,0.00
2019-03-31T00:45:47.919Z,0.00
2019-03-31T00:46:47.897Z,0.00
2019-03-31T00:47:47.904Z,0.00
2019-03-31T00:48:47.878Z,0.00
2019-03-31T00:49:47.868Z,0.00
2019-03-31T00:50:47.853Z,0.00
2019-03-31T00:51:47.853Z,0.00
2019-03-31T00:52:47.844Z,0.00
2019-03-31T00:53:47.827Z,0.00
2019-03-31T00:54:47.811Z,0.00
2019-03-31T00:55:47.802Z,0.00
2019-03-31T00:56:47.795Z,0.00
2019-03-31T00:57:47.796Z,0.00
2019-03-31T00:58:47.766Z,0.00
2019-03-31T00:59:47.762Z,0.00
2019-03-31T01:00:47.748Z,0.00
2019-03-31T01:01:47.738Z,0.00
2019-03-31T01:02:47.739Z,0.00
2019-03-31T01:03:47.719Z,0.00
2019-03-31T01:04:47.699Z,0.00
2019-03-31T01:05:47.706Z,0.00
2019-03-31T01:06:47.678Z,0.00
2019-03-31T01:07:47.685Z,0.00
2019-03-31T01:08:47.656Z,0.00
2019-03-31T01:09:47.649Z,0.00
2019-03-31T01:10:47.633Z,0.00
2019-03-31T01:11:47.628Z,0.00
2019-03-31T01:12:47.626Z,0.00
2019-03-31T01:13:47.611Z,0.00
2019-03-31T01:14:47.590Z,0.00
2019-03-31T01:15:47.581Z,0.00
2019-03-31T01:16:47.566Z,0.00
2019-03-31T01:17:47.574Z,0.00
2019-03-31T01:18:47.545Z,0.00
2019-03-31T01:19:47.540Z,0.00
2019-03-31T01:20:47.527Z,0.00
2019-03-31T01:21:47.516Z,0.00
2019-03-31T01:22:47.517Z,0.00
2019-03-31T01:23:47.498Z,0.00
2019-03-31T01:24:47.480Z,0.00
2019-03-31T01:25:47.477Z,0.00
2019-03-31T01:26:47.460Z,0.00
2019-03-31T01:27:47.466Z,0.00
2019-03-31T01:28:47.438Z,0.00
2019-03-31T01:29:47.430Z,0.00
2019-03-31T01:30:47.418Z,0.00
2019-03-31T01:31:50.459Z,0.00
2019-03-31T01:32:47.406Z,0.00
2019-03-31T01:33:47.387Z,0.00
2019-03-31T01:34:47.370Z,0.00
2019-03-31T01:35:47.363Z,0.00
2019-03-31T01:36:47.351Z,0.00
2019-03-31T01:37:47.383Z,0.00
2019-03-31T01:38:47.333Z,0.00
2019-03-31T01:39:47.320Z,0.00
2019-03-31T01:40:47.305Z,0.00
2019-03-31T01:41:47.300Z,0.00
2019-03-31T01:42:47.294Z,0.00
2019-03-31T01:43:47.295Z,0.00
2019-03-31T01:44:47.263Z,0.00
2019-03-31T01:45:47.257Z,0.00
2019-03-31T01:46:47.245Z,0.00
2019-03-31T01:47:47.236Z,0.00
2019-03-31T01:48:47.234Z,0.00
2019-03-31T01:49:47.211Z,0.00
2019-03-31T01:50:47.195Z,0.00
2019-03-31T01:51:47.189Z,0.00
2019-03-31T01:52:47.177Z,0.00
2019-03-31T01:53:47.183Z,0.00
2019-03-31T01:54:47.151Z,0.00
2019-03-31T01:55:47.144Z,0.00
2019-03-31T01:56:47.130Z,0.00
2019-03-31T01:57:47.122Z,0.00
2019-03-31T01:58:47.121Z,0.00
2019-03-31T01:59:47.106Z,0.00
2019-03-31T02:00:47.086Z,0.00
2019-03-31T02:01:47.079Z,0.00
2019-03-31T02:02:47.063Z,0.00
2019-03-31T02:03:47.076Z,0.00
2019-03-31T02:04:47.041Z,0.00
2019-03-31T02:05:47.037Z,0.00
2019-03-31T02:06:47.021Z,0.00
2019-03-31T02:07:47.015Z,0.00
2019-03-31T02:08:47.012Z,0.00
2019-03-31T02:09:46.992Z,0.00
2019-03-31T02:10:46.976Z,0.00
2019-03-31T02:11:46.985Z,0.00
2019-03-31T02:12:46.953Z,0.00
2019-03-31T02:13:46.961Z,0.00
2019-03-31T02:14:46.931Z,0.00
2019-03-31T02:15:46.931Z,0.00
2019-03-31T02:16:46.912Z,0.00
2019-03-31T02:17:46.910Z,0.00
2019-03-31T02:18:46.902Z,0.00
2019-03-31T02:19:46.885Z,0.00
2019-03-31T02:20:46.868Z,0.00
2019-03-31T02:21:46.860Z,0.00
2019-03-31T02:22:46.847Z,0.00
2019-03-31T02:23:46.852Z,0.00
2019-03-31T02:24:46.826Z,0.00
2019-03-31T02:25:46.816Z,0.00
2019-03-31T02:26:46.800Z,0.00
2019-03-31T02:27:46.795Z,0.00
2019-03-31T02:28:46.783Z,0.00
2019-03-31T02:29:46.790Z,0.00
2019-03-31T02:30:46.763Z,0.00
2019-03-31T02:31:46.751Z,0.00
2019-03-31T02:32:46.736Z,0.00
2019-03-31T02:33:46.728Z,0.00
2019-03-31T02:34:46.730Z,0.00
2019-03-31T02:35:46.708Z,0.00
2019-03-31T02:36:46.694Z,0.00
2019-03-31T02:37:46.686Z,0.00
2019-03-31T02:38:46.674Z,0.00
2019-03-31T02:39:46.682Z,0.00
2019-03-31T02:40:46.647Z,0.00
2019-03-31T02:41:46.642Z,0.00
2019-03-31T02:42:46.625Z,0.00
2019-03-31T02:43:46.621Z,0.00
2019-03-31T02:44:46.621Z,0.00
2019-03-31T02:45:46.599Z,0.00
2019-03-31T02:46:46.581Z,0.00
2019-03-31T02:47:46.575Z,0.00
2019-03-31T02:48:46.560Z,0.00
2019-03-31T02:49:46.566Z,0.00
2019-03-31T02:50:46.537Z,0.00
2019-03-31T02:51:46.531Z,0.00
2019-03-31T02:52:46.515Z,0.00
2019-03-31T02:53:46.508Z,0.00
2019-03-31T02:54:46.507Z,0.00
2019-03-31T02:55:46.488Z,0.00
2019-03-31T02:56:46.470Z,0.00
2019-03-31T02:57:46.482Z,0.00
2019-03-31T02:58:46.448Z,0.00
2019-03-31T02:59:46.458Z,0.00
2019-03-31T03:00:46.426Z,0.00
2019-03-31T03:01:46.431Z,0.00
2019-03-31T03:02:46.416Z,0.00
2019-03-31T03:03:46.405Z,0.00
2019-03-31T03:04:46.398Z,0.00
2019-03-31T03:05:46.385Z,0.00
2019-03-31T03:06:46.360Z,0.00
2019-03-31T03:07:46.355Z,0.00
2019-03-31T03:08:46.347Z,0.00
2019-03-31T03:09:46.345Z,0.00
2019-03-31T03:10:46.317Z,0.00
2019-03-31T03:11:46.311Z,0.00
2019-03-31T03:12:46.301Z,0.00
2019-03-31T03:13:46.295Z,0.00
2019-03-31T03:14:46.289Z,0.00
2019-03-31T03:15:46.274Z,0.00
2019-03-31T03:16:46.253Z,0.00
2019-03-31T03:17:46.245Z,0.00
2019-03-31T03:18:46.230Z,0.00
2019-03-31T03:19:46.237Z,0.00
2019-03-31T03:20:46.215Z,0.00
2019-03-31T03:21:46.202Z,0.00
2019-03-31T03:22:46.187Z,0.00
2019-03-31T03:23:46.179Z,0.00
2019-03-31T03:24:46.184Z,0.00
2019-03-31T03:25:55.666Z,0.00
2019-03-31T03:26:47.140Z,0.00
2019-03-31T03:27:46.137Z,0.00
2019-03-31T03:28:46.120Z,0.00
2019-03-31T03:29:46.130Z,0.00
2019-03-31T03:30:46.234Z,0.00
2019-03-31T03:31:46.109Z,0.00
2019-03-31T03:33:12.393Z,0.00
2019-03-31T03:33:47.066Z,0.00
2019-03-31T03:34:46.066Z,0.00
2019-03-31T03:35:46.098Z,0.00
2019-03-31T03:36:46.043Z,0.00
2019-03-31T03:37:46.026Z,0.00
2019-03-31T03:38:46.014Z,0.00
2019-03-31T03:39:46.019Z,0.00
2019-03-31T03:40:45.988Z,0.00
2019-03-31T03:41:45.992Z,0.00
2019-03-31T03:42:46.019Z,0.00
2019-03-31T03:43:55.343Z,0.00
2019-03-31T03:44:46.975Z,0.00
2019-03-31T03:45:45.944Z,0.00
2019-03-31T03:46:45.923Z,0.00
2019-03-31T03:47:45.942Z,0.00
2019-03-31T03:48:46.264Z,0.00
2019-03-31T03:49:45.923Z,0.00
2019-03-31T03:50:45.895Z,0.00
2019-03-31T03:51:45.886Z,0.00
2019-03-31T03:52:45.858Z,0.00
2019-03-31T03:53:45.851Z,0.00
2019-03-31T03:54:45.833Z,0.00
2019-03-31T03:55:45.843Z,0.00
2019-03-31T03:56:45.817Z,0.00
2019-03-31T03:57:45.809Z,0.00
2019-03-31T03:58:45.791Z,0.00
2019-03-31T03:59:45.787Z,0.00
2019-03-31T04:00:45.783Z,0.00
2019-03-31T04:01:45.764Z,0.00
2019-03-31T04:02:45.747Z,0.00
2019-03-31T04:03:45.744Z,0.00
2019-03-31T04:04:45.726Z,0.00
2019-03-31T04:05:45.732Z,0.00
2019-03-31T04:06:45.712Z,0.00
2019-03-31T04:07:45.701Z,0.00
2019-03-31T04:08:45.686Z,0.00
2019-03-31T04:09:45.678Z,0.00
2019-03-31T04:10:45.690Z,0.00
2019-03-31T04:11:45.658Z,0.00
2019-03-31T04:12:45.653Z,0.00
2019-03-31T04:13:45.646Z,0.00
2019-03-31T04:14:45.616Z,0.00
2019-03-31T04:15:45.625Z,0.00
2019-03-31T04:16:45.684Z,0.00
2019-03-31T04:17:45.591Z,0.00
2019-03-31T04:18:45.574Z,0.00
2019-03-31T04:19:45.566Z,0.00
2019-03-31T04:20:45.566Z,0.00
2019-03-31T04:21:45.550Z,0.00
2019-03-31T04:22:45.530Z,0.00
2019-03-31T04:23:45.543Z,0.00
2019-03-31T04:24:45.512Z,0.00
2019-03-31T04:25:45.524Z,0.00
2019-03-31T04:26:45.486Z,0.00
2019-03-31T04:27:45.481Z,0.00
2019-03-31T04:28:45.462Z,0.00
2019-03-31T04:29:45.463Z,0.00
2019-03-31T04:30:45.464Z,4.00
2019-03-31T04:31:45.433Z,4.00
2019-03-31T04:32:45.418Z,0.00
2019-03-31T04:33:51.658Z,4.00
2019-03-31T04:34:46.396Z,4.00
2019-03-31T04:35:45.406Z,4.00
2019-03-31T04:36:45.377Z,4.00
2019-03-31T04:37:45.369Z,4.00
2019-03-31T04:38:45.354Z,4.00
2019-03-31T04:39:45.346Z,4.00
2019-03-31T04:40:45.349Z,8.00
2019-03-31T04:41:45.332Z,12.00
2019-03-31T04:42:45.311Z,12.00
2019-03-31T04:43:45.302Z,12.00
2019-03-31T04:44:45.286Z,16.00
2019-03-31T04:45:45.295Z,20.00
2019-03-31T04:46:45.270Z,20.00
2019-03-31T04:47:45.258Z,28.00
2019-03-31T04:48:45.243Z,28.00
2019-03-31T04:49:45.244Z,32.00
2019-03-31T04:50:45.234Z,36.00
2019-03-31T04:51:45.214Z,32.00
2019-03-31T04:52:45.206Z,32.00
2019-03-31T04:53:45.191Z,36.00
2019-03-31T04:54:45.176Z,36.00
2019-03-31T04:55:45.184Z,44.00
2019-03-31T04:56:45.159Z,48.00
2019-03-31T04:57:45.149Z,56.00
2019-03-31T04:58:45.141Z,68.00
2019-03-31T04:59:45.126Z,80.00
2019-03-31T05:00:45.122Z,96.00
2019-03-31T05:01:45.111Z,128.00
2019-03-31T05:02:45.088Z,160.00
2019-03-31T05:03:45.094Z,196.00
2019-03-31T05:04:45.066Z,224.00
2019-03-31T05:05:45.075Z,256.00
2019-03-31T05:06:45.047Z,284.00
2019-03-31T05:07:45.037Z,316.00
2019-03-31T05:08:45.022Z,344.00
2019-03-31T05:09:45.015Z,376.00
2019-03-31T05:10:45.016Z,404.00
2019-03-31T05:11:44.992Z,436.00
2019-03-31T05:12:44.981Z,468.00
2019-03-31T05:13:44.972Z,496.00
2019-03-31T05:14:44.956Z,524.00
2019-03-31T05:15:44.998Z,556.00
2019-03-31T05:16:44.932Z,588.00
2019-03-31T05:17:44.929Z,620.00
2019-03-31T05:18:44.910Z,656.00
2019-03-31T05:19:44.905Z,688.00
2019-03-31T05:20:44.894Z,692.00
2019-03-31T05:21:44.904Z,676.00
2019-03-31T05:22:44.867Z,692.00
2019-03-31T05:23:44.861Z,700.00
2019-03-31T05:24:44.847Z,708.00
2019-03-31T05:25:44.839Z,708.00
2019-03-31T05:26:44.839Z,692.00
2019-03-31T05:27:44.815Z,660.00
2019-03-31T05:28:44.800Z,592.00
2019-03-31T05:29:44.794Z,536.00
2019-03-31T05:30:44.778Z,480.00
2019-03-31T05:31:44.786Z,472.00
2019-03-31T05:32:44.772Z,484.00
2019-03-31T05:33:44.751Z,508.00
2019-03-31T05:34:44.734Z,464.00
2019-03-31T05:35:44.731Z,460.00
2019-03-31T05:36:44.735Z,468.00
2019-03-31T05:37:51.120Z,500.00
2019-03-31T05:38:45.698Z,560.00
2019-03-31T05:39:44.683Z,568.00
2019-03-31T05:40:44.669Z,596.00
2019-03-31T05:41:44.680Z,604.00
2019-03-31T05:42:44.647Z,636.00
2019-03-31T05:43:44.646Z,720.00
2019-03-31T05:44:44.631Z,808.00
2019-03-31T05:45:44.619Z,832.00
2019-03-31T05:46:44.616Z,848.00
2019-03-31T05:47:44.598Z,932.00
2019-03-31T05:48:44.580Z,1032.00
2019-03-31T05:49:44.579Z,1040.00
2019-03-31T05:50:44.559Z,1052.00
2019-03-31T05:51:44.567Z,1084.00
2019-03-31T05:52:44.542Z,1108.00
2019-03-31T05:53:44.533Z,1164.00
2019-03-31T05:54:44.519Z,1204.00
2019-03-31T05:55:44.517Z,1140.00
2019-03-31T05:56:44.516Z,1160.00
2019-03-31T05:57:44.487Z,1172.00
2019-03-31T05:58:44.511Z,1272.00
2019-03-31T05:59:44.466Z,1444.00
2019-03-31T06:00:44.449Z,1588.00
2019-03-31T06:01:44.456Z,1764.00
2019-03-31T06:02:44.426Z,1900.00
2019-03-31T06:03:44.424Z,2080.00
2019-03-31T06:04:44.404Z,2192.00
2019-03-31T06:05:44.399Z,2152.00
2019-03-31T06:06:44.397Z,1980.00
2019-03-31T06:07:44.381Z,1820.00
2019-03-31T06:08:44.362Z,1708.00
2019-03-31T06:09:44.354Z,1748.00
2019-03-31T06:10:44.338Z,1732.00
2019-03-31T06:11:44.353Z,1868.00
2019-03-31T06:12:44.319Z,2008.00
2019-03-31T06:13:44.317Z,1948.00
2019-03-31T06:14:44.296Z,1948.00
2019-03-31T06:15:44.289Z,2008.00
2019-03-31T06:16:44.288Z,2144.00
2019-03-31T06:17:44.266Z,2344.00
2019-03-31T06:18:44.253Z,2568.00
2019-03-31T06:19:44.244Z,2676.00
2019-03-31T06:20:44.229Z,2476.00
2019-03-31T06:21:44.238Z,2088.00
2019-03-31T06:22:44.212Z,1860.00
2019-03-31T06:23:44.204Z,1724.00
2019-03-31T06:24:44.188Z,1704.00
2019-03-31T06:25:44.182Z,1576.00
2019-03-31T06:26:44.176Z,1656.00
2019-03-31T06:27:44.157Z,2128.00
2019-03-31T06:28:44.141Z,2696.00
2019-03-31T06:29:44.137Z,3124.00
2019-03-31T06:30:44.117Z,3276.00
2019-03-31T06:31:44.130Z,3260.00
2019-03-31T06:32:44.095Z,3276.00
2019-03-31T06:33:44.089Z,3272.00
2019-03-31T06:34:47.615Z,3224.00
2019-03-31T06:35:44.067Z,3208.00
2019-03-31T06:36:44.069Z,3268.00
2019-03-31T06:37:44.044Z,3364.00
2019-03-31T06:38:44.030Z,3484.00
2019-03-31T06:39:44.023Z,3620.00
2019-03-31T06:40:44.005Z,3780.00
2019-03-31T06:41:44.013Z,4012.00
2019-03-31T06:42:43.984Z,4288.00
2019-03-31T06:43:43.977Z,4472.00
2019-03-31T06:44:43.961Z,4448.00
2019-03-31T06:45:43.954Z,4348.00
2019-03-31T06:46:43.952Z,4220.00
2019-03-31T06:47:43.936Z,4164.00
2019-03-31T06:48:43.917Z,4268.00
2019-03-31T06:49:43.912Z,4328.00
2019-03-31T06:50:43.897Z,4244.00
2019-03-31T06:51:43.915Z,4056.00
2019-03-31T06:52:43.873Z,4004.00
2019-03-31T06:53:43.871Z,3736.00
2019-03-31T06:54:43.854Z,3484.00
2019-03-31T06:55:43.845Z,3296.00
2019-03-31T06:56:46.960Z,3172.00
2019-03-31T06:57:43.824Z,3072.00
2019-03-31T06:58:43.830Z,3244.00
2019-03-31T06:59:43.802Z,2900.00
2019-03-31T07:00:43.787Z,2832.00
2019-03-31T07:01:43.781Z,2632.00
2019-03-31T07:02:43.786Z,2648.00
2019-03-31T07:03:43.759Z,2652.00
2019-03-31T07:04:43.747Z,2704.00
2019-03-31T07:05:43.744Z,2900.00
2019-03-31T07:06:43.722Z,2980.00
2019-03-31T07:07:43.729Z,3060.00
2019-03-31T07:08:43.707Z,3152.00
2019-03-31T07:09:43.694Z,3276.00
2019-03-31T07:10:43.684Z,3572.00
2019-03-31T07:11:43.670Z,3908.00
2019-03-31T07:12:43.670Z,4292.00
2019-03-31T07:13:43.649Z,4564.00
2019-03-31T07:14:43.633Z,4580.00
2019-03-31T07:15:43.636Z,4608.00
2019-03-31T07:16:43.612Z,4788.00
2019-03-31T07:17:43.618Z,5132.00
2019-03-31T07:18:43.587Z,5444.00
2019-03-31T07:19:43.582Z,5564.00
2019-03-31T07:20:43.567Z,5804.00
2019-03-31T07:21:43.559Z,6392.00
2019-03-31T07:22:43.573Z,6884.00
2019-03-31T07:23:43.539Z,8720.00
2019-03-31T07:24:43.523Z,9952.00
2019-03-31T07:25:43.517Z,8824.00
2019-03-31T07:26:43.502Z,11188.00
2019-03-31T07:27:43.508Z,10504.00
2019-03-31T07:28:43.478Z,10396.00
2019-03-31T07:29:43.473Z,10452.00
2019-03-31T07:30:43.456Z,10424.00
2019-03-31T07:31:43.448Z,10896.00
2019-03-31T07:32:43.447Z,10568.00
2019-03-31T07:33:43.430Z,10248.00
2019-03-31T07:34:43.412Z,10872.00
2019-03-31T07:35:43.404Z,12528.00
2019-03-31T07:36:43.388Z,12256.00
2019-03-31T07:37:47.505Z,11272.00
2019-03-31T07:38:43.443Z,12504.00
2019-03-31T07:39:45.932Z,11848.00
2019-03-31T07:40:43.386Z,11816.00
2019-03-31T07:41:43.595Z,13704.00
2019-03-31T07:42:43.336Z,11996.00
2019-03-31T07:43:43.317Z,11980.00
2019-03-31T07:44:43.307Z,11588.00
2019-03-31T07:45:43.293Z,11208.00
2019-03-31T07:46:43.278Z,9924.00
2019-03-31T07:47:43.284Z,8008.00
2019-03-31T07:48:43.260Z,6612.00
2019-03-31T07:49:43.250Z,5796.00
2019-03-31T07:50:43.238Z,5404.00
2019-03-31T07:51:43.226Z,5324.00
2019-03-31T07:52:43.224Z,5524.00
2019-03-31T07:53:43.204Z,5600.00
2019-03-31T07:54:43.188Z,5452.00
2019-03-31T07:55:43.186Z,5192.00
2019-03-31T07:56:43.166Z,5000.00
2019-03-31T07:57:43.192Z,5036.00
2019-03-31T07:58:43.143Z,5196.00
2019-03-31T07:59:43.155Z,5376.00
2019-03-31T08:00:43.122Z,5476.00
2019-03-31T08:01:43.128Z,5256.00
2019-03-31T08:02:43.122Z,4988.00
2019-03-31T08:03:43.094Z,4900.00
2019-03-31T08:04:43.075Z,4940.00
2019-03-31T08:05:43.073Z,5012.00
2019-03-31T08:06:43.054Z,5156.00
2019-03-31T08:07:43.063Z,5472.00
2019-03-31T08:08:43.031Z,5684.00
2019-03-31T08:09:43.028Z,5908.00
2019-03-31T08:10:43.010Z,6204.00
2019-03-31T08:11:43.004Z,6548.00
2019-03-31T08:12:43.004Z,6992.00
2019-03-31T08:13:42.987Z,7640.00
2019-03-31T08:14:42.965Z,8556.00
2019-03-31T08:15:42.960Z,12820.00
2019-03-31T08:16:42.944Z,25184.00
2019-03-31T08:17:43.001Z,25216.00
2019-03-31T08:18:42.928Z,26784.00
2019-03-31T08:19:42.914Z,25312.00
2019-03-31T08:20:42.901Z,22208.00
2019-03-31T08:21:42.897Z,20032.00
2019-03-31T08:22:42.894Z,18912.00
2019-03-31T08:23:42.870Z,17472.00
2019-03-31T08:24:42.857Z,17024.00
2019-03-31T08:25:42.850Z,16448.00
2019-03-31T08:26:42.833Z,15968.00
2019-03-31T08:27:42.841Z,15680.00
2019-03-31T08:28:42.818Z,13084.00
2019-03-31T08:29:42.809Z,13344.00
2019-03-31T08:30:42.798Z,16384.00
2019-03-31T08:31:42.782Z,17760.00
2019-03-31T08:32:42.782Z,18720.00
2019-03-31T08:33:42.761Z,18944.00
2019-03-31T08:34:42.748Z,19456.00
2019-03-31T08:35:47.652Z,13392.00
2019-03-31T08:36:43.722Z,14236.00
2019-03-31T08:37:42.729Z,14048.00
2019-03-31T08:38:42.701Z,12628.00
2019-03-31T08:39:42.695Z,13556.00
2019-03-31T08:40:42.681Z,14168.00
2019-03-31T08:41:42.670Z,13180.00
2019-03-31T08:42:42.676Z,11524.00
2019-03-31T08:43:42.649Z,10432.00
2019-03-31T08:44:42.634Z,9116.00
2019-03-31T08:45:42.631Z,8020.00
2019-03-31T08:46:42.615Z,7292.00
2019-03-31T08:47:42.623Z,6916.00
2019-03-31T08:48:42.592Z,6816.00
2019-03-31T08:49:42.587Z,6888.00
2019-03-31T08:50:42.567Z,6944.00
2019-03-31T08:51:42.562Z,7116.00
2019-03-31T08:52:42.559Z,7428.00
2019-03-31T08:53:42.542Z,7644.00
2019-03-31T08:54:42.522Z,7724.00
2019-03-31T08:55:42.538Z,7788.00
2019-03-31T08:56:42.502Z,7788.00
2019-03-31T08:57:42.514Z,7864.00
2019-03-31T08:58:42.479Z,8068.00
2019-03-31T08:59:42.471Z,7972.00
2019-03-31T09:00:42.455Z,7672.00
2019-03-31T09:01:42.450Z,7372.00
2019-03-31T09:02:42.447Z,7092.00
2019-03-31T09:03:42.426Z,7056.00
2019-03-31T09:04:42.418Z,7036.00
2019-03-31T09:05:42.405Z,7216.00
2019-03-31T09:06:42.390Z,7476.00
2019-03-31T09:07:42.397Z,7560.00
2019-03-31T09:08:42.372Z,7648.00
2019-03-31T09:09:42.362Z,7884.00
2019-03-31T09:10:42.352Z,8196.00
2019-03-31T09:11:42.337Z,8904.00
2019-03-31T09:12:42.322Z,9456.00
2019-03-31T09:13:42.332Z,9672.00
2019-03-31T09:14:42.300Z,10060.00
2019-03-31T09:15:42.301Z,10000.00
2019-03-31T09:16:42.280Z,9356.00
2019-03-31T09:17:42.271Z,9480.00
2019-03-31T09:18:42.269Z,10512.00
2019-03-31T09:19:42.267Z,11220.00
2019-03-31T09:20:42.235Z,10932.00
2019-03-31T09:21:42.227Z,10748.00
2019-03-31T09:22:42.211Z,10580.00
2019-03-31T09:23:42.218Z,11916.00
2019-03-31T09:24:42.188Z,12876.00
2019-03-31T09:25:42.185Z,12664.00
2019-03-31T09:26:42.168Z,10264.00
2019-03-31T09:27:42.168Z,9612.00
2019-03-31T09:28:42.166Z,9368.00
2019-03-31T09:29:42.138Z,10196.00
2019-03-31T09:30:42.123Z,11028.00
2019-03-31T09:31:42.116Z,13068.00
2019-03-31T09:32:42.099Z,50912.00
2019-03-31T09:33:42.112Z,17184.00
2019-03-31T09:34:42.078Z,14640.00
2019-03-31T09:35:42.070Z,14964.00
2019-03-31T09:36:42.055Z,17184.00
2019-03-31T09:37:42.051Z,50048.00
2019-03-31T09:38:42.047Z,51616.00
2019-03-31T09:39:42.027Z,54080.00
2019-03-31T09:40:42.015Z,16384.00
2019-03-31T09:41:42.003Z,13260.00
2019-03-31T09:42:41.989Z,58752.00
2019-03-31T09:43:41.997Z,16064.00
2019-03-31T09:44:41.974Z,18208.00
2019-03-31T09:45:41.960Z,17856.00
2019-03-31T09:46:41.944Z,16928.00
2019-03-31T09:47:41.938Z,16768.00
2019-03-31T09:48:41.941Z,16448.00
2019-03-31T09:49:41.920Z,17216.00
2019-03-31T09:50:41.906Z,15808.00
2019-03-31T09:51:41.897Z,15096.00
2019-03-31T09:52:41.889Z,24864.00
2019-03-31T09:53:41.886Z,60096.00
2019-03-31T09:54:41.860Z,34752.00
2019-03-31T09:55:41.852Z,30112.00
2019-03-31T09:56:41.834Z,64608.00
2019-03-31T09:57:41.831Z,62496.00
2019-03-31T09:58:41.827Z,61920.00
2019-03-31T09:59:41.806Z,65664.00
2019-03-31T10:00:41.789Z,67360.00
2019-03-31T10:01:41.786Z,66592.00
2019-03-31T10:02:41.768Z,67264.00
2019-03-31T10:03:41.774Z,68224.00
2019-03-31T10:04:41.744Z,72352.00
2019-03-31T10:05:41.744Z,35072.00
2019-03-31T10:06:41.724Z,27168.00
2019-03-31T10:07:41.721Z,24160.00
2019-03-31T10:08:41.715Z,22560.00
2019-03-31T10:09:41.694Z,21440.00
2019-03-31T10:10:41.678Z,19328.00
2019-03-31T10:11:41.670Z,17760.00
2019-03-31T10:12:41.657Z,16256.00
2019-03-31T10:13:41.668Z,14860.00
2019-03-31T10:14:41.632Z,13860.00
2019-03-31T10:15:41.625Z,13216.00
2019-03-31T10:16:41.614Z,13016.00
2019-03-31T10:17:41.604Z,12980.00
2019-03-31T10:18:41.620Z,13196.00
2019-03-31T10:19:41.581Z,13608.00
2019-03-31T10:20:41.567Z,13140.00
2019-03-31T10:21:41.561Z,12704.00
2019-03-31T10:22:41.545Z,12264.00
2019-03-31T10:23:41.536Z,11920.00
2019-03-31T10:24:41.543Z,11544.00
2019-03-31T10:25:41.516Z,11236.00
2019-03-31T10:26:41.501Z,11088.00
2019-03-31T10:27:41.492Z,11460.00
2019-03-31T10:28:41.482Z,11700.00
2019-03-31T10:29:41.484Z,11848.00
2019-03-31T10:30:41.453Z,13052.00
2019-03-31T10:31:41.447Z,15840.00
2019-03-31T10:32:41.432Z,34848.00
2019-03-31T10:33:41.426Z,25472.00
2019-03-31T10:34:41.424Z,22912.00
2019-03-31T10:35:41.403Z,20096.00
2019-03-31T10:36:44.823Z,18464.00
2019-03-31T10:37:41.381Z,19520.00
2019-03-31T10:38:41.366Z,26144.00
2019-03-31T10:39:41.372Z,20320.00
2019-03-31T10:40:41.342Z,22944.00
2019-03-31T10:41:41.341Z,27648.00
2019-03-31T10:42:41.319Z,70208.00
2019-03-31T10:43:41.312Z,39552.00
2019-03-31T10:44:41.312Z,72160.00
2019-03-31T10:45:41.293Z,36320.00
2019-03-31T10:46:41.281Z,34528.00
2019-03-31T10:47:41.272Z,55648.00
2019-03-31T10:48:41.252Z,65504.00
2019-03-31T10:49:41.263Z,63104.00
2019-03-31T10:50:41.231Z,90816.00
2019-03-31T10:51:41.221Z,87168.00
2019-03-31T10:52:41.211Z,86144.00
2019-03-31T10:53:41.202Z,85472.00
2019-03-31T10:54:41.198Z,78912.00
2019-03-31T10:55:41.178Z,73888.00
2019-03-31T10:56:41.164Z,84864.00
2019-03-31T10:57:41.156Z,69344.00
2019-03-31T10:58:41.144Z,67360.00
2019-03-31T10:59:41.545Z,77696.00
2019-03-31T11:00:44.331Z,51072.00
2019-03-31T11:01:41.110Z,77312.00
2019-03-31T11:02:41.097Z,36640.00
2019-03-31T11:03:41.093Z,50560.00
2019-03-31T11:04:41.085Z,56480.00
2019-03-31T11:05:41.077Z,41184.00
2019-03-31T11:06:41.051Z,45024.00
2019-03-31T11:07:41.050Z,52288.00
2019-03-31T11:08:41.027Z,44032.00
2019-03-31T11:09:41.036Z,47648.00
2019-03-31T11:10:41.006Z,26400.00
2019-03-31T11:11:40.999Z,23520.00
2019-03-31T11:12:40.983Z,20608.00
2019-03-31T11:13:40.979Z,20992.00
2019-03-31T11:14:40.980Z,27936.00
2019-03-31T11:15:40.958Z,52832.00
2019-03-31T11:16:40.943Z,44992.00
2019-03-31T11:17:40.932Z,43328.00
2019-03-31T11:18:40.916Z,41376.00
2019-03-31T11:19:40.925Z,38016.00
2019-03-31T11:20:40.898Z,39200.00
2019-03-31T11:21:40.897Z,39968.00
2019-03-31T11:22:40.873Z,39296.00
2019-03-31T11:23:40.865Z,40672.00
2019-03-31T11:24:40.864Z,34464.00
2019-03-31T11:25:40.842Z,37632.00
2019-03-31T11:26:40.828Z,36896.00
2019-03-31T11:27:43.736Z,38496.00
2019-03-31T11:28:40.811Z,41760.00
2019-03-31T11:29:40.816Z,47584.00
2019-03-31T11:30:40.787Z,46560.00
2019-03-31T11:31:40.776Z,54656.00
2019-03-31T11:32:40.768Z,60864.00
2019-03-31T11:33:40.753Z,62496.00
2019-03-31T11:34:40.772Z,33280.00
2019-03-31T11:35:40.731Z,33376.00
2019-03-31T11:36:40.720Z,82336.00
2019-03-31T11:37:40.711Z,87232.00
2019-03-31T11:38:40.696Z,97536.00
2019-03-31T11:39:40.687Z,97408.00
2019-03-31T11:40:40.686Z,33664.00
2019-03-31T11:41:40.668Z,30400.00
2019-03-31T11:42:40.650Z,29248.00
2019-03-31T11:43:40.655Z,29408.00
2019-03-31T11:44:40.627Z,93312.00
2019-03-31T11:45:40.640Z,85088.00
2019-03-31T11:46:40.611Z,83104.00
2019-03-31T11:47:40.604Z,88992.00
2019-03-31T11:48:40.587Z,86176.00
2019-03-31T11:49:40.577Z,86560.00
2019-03-31T11:50:40.583Z,91616.00
2019-03-31T11:51:40.555Z,95712.00
2019-03-31T11:52:40.539Z,93504.00
2019-03-31T11:53:40.533Z,96672.00
2019-03-31T11:54:40.521Z,86848.00
2019-03-31T11:55:40.529Z,92512.00
2019-03-31T11:56:40.500Z,84096.00
2019-03-31T11:57:40.488Z,46816.00
2019-03-31T11:58:40.476Z,73952.00
2019-03-31T11:59:40.473Z,77984.00
2019-03-31T12:00:40.465Z,72160.00
2019-03-31T12:01:40.456Z,63232.00
2019-03-31T12:02:40.429Z,60864.00
2019-03-31T12:03:40.427Z,68544.00
2019-03-31T12:04:40.407Z,64608.00
2019-03-31T12:05:40.418Z,58624.00
2019-03-31T12:06:40.391Z,61792.00
2019-03-31T12:07:47.124Z,67136.00
2019-03-31T12:08:41.362Z,51840.00
2019-03-31T12:09:40.357Z,29024.00
2019-03-31T12:10:40.358Z,30080.00
2019-03-31T12:11:40.336Z,77792.00
2019-03-31T12:12:40.320Z,38336.00
2019-03-31T12:13:40.316Z,33664.00
2019-03-31T12:14:40.300Z,70848.00
2019-03-31T12:15:40.305Z,71904.00
2019-03-31T12:16:40.276Z,77120.00
2019-03-31T12:17:40.284Z,73440.00
2019-03-31T12:18:40.257Z,63072.00
2019-03-31T12:19:40.249Z,72672.00
2019-03-31T12:20:40.245Z,79872.00
2019-03-31T12:21:40.224Z,63136.00
2019-03-31T12:22:40.220Z,60640.00
2019-03-31T12:23:40.204Z,64000.00
2019-03-31T12:24:40.191Z,68160.00
2019-03-31T12:25:40.197Z,79328.00
2019-03-31T12:26:40.168Z,76352.00